• Join FlightAware (Why Join?)
  • Login
  • US Flag 
03:37PM EDT


 

Airport Tracker/Info


-or-


 

Live Flight TrackerFlight Track Log ✈ EJA922 ✈ 19-Sep-2013 ✈ KOMA - KANW

Flight Track Log - Related Links

Times and Time Zones

All times are in EDT time to prevent confusion due to time zone crossing. See the EJA922 flight status page for this flight to view local times or setup timezone preferences in your user account.

Time Position Orientation Groundspeed Altitude Reporting Facility
EDT Latitude Longitude Course Direction KTS MPH feet Rate Location/Type
07:59AM 41.2936 -95.9003 165° South 160 184 1,400  Level Minneapolis Center
08:00AM 41.2797 -95.8953 165° South 179 206 2,200 3,300 Climbing Minneapolis Center
08:00AM 41.2561 -95.9047 197° South 197 227 3,800 2,700 Climbing Minneapolis Center
08:01AM 41.2539 -95.9453 266° West 238 274 5,000 2,460 Climbing Minneapolis Center
08:02AM 41.2961 -96.0231 306° West 252 290 7,800 2,700 Climbing Minneapolis Center
08:03AM 41.3381 -96.1150 301° West 272 313 10,600 2,640 Climbing Minneapolis Center
08:04AM 41.3825 -96.2083 302° West 288 331 13,200 2,340 Climbing Minneapolis Center
08:05AM 41.4314 -96.3181 301° West 326 375 15,400 2,160 Climbing Minneapolis Center
08:06AM 41.4822 -96.4294 301° West 346 398 17,700 2,340 Climbing Minneapolis Center
08:07AM 41.5428 -96.5369 307° West 357 411 20,200 2,340 Climbing Minneapolis Center
08:08AM 41.6058 -96.6436 308° West 363 418 22,600 1,800 Climbing Minneapolis Center
08:09AM 41.6658 -96.7539 306° West 365 420 24,000 660 Climbing Minneapolis Center
08:10AM 41.7353 -96.8797 307° West 393 452 24,000  Level Minneapolis Center
08:11AM 41.7931 -97.0286 298° West 426 490 24,000  Level Minneapolis Center
08:12AM 41.8539 -97.1819 298° West 449 517 24,000  Level Minneapolis Center
08:13AM 41.9169 -97.3325 299° West 458 527 24,000  Level Minneapolis Center
08:14AM 41.9964 -97.5072 302° West 459 528 24,000  Level Minneapolis Center
08:15AM 42.0556 -97.6467 300° West 446 513 24,000  Level Minneapolis Center
08:16AM 42.1094 -97.7861 298° West 427 491 24,000  Level Minneapolis Center
08:17AM 42.1653 -97.9231 299° West 425 489 24,000  Level Minneapolis Center
08:18AM 42.2214 -98.0631 298° West 425 489 24,000  Level Minneapolis Center
08:19AM 42.2772 -98.1992 299° West 419 482 24,000  Level Minneapolis Center
08:20AM 42.3325 -98.3381 298° West 420 483 24,000 -960 Level Minneapolis Center
08:21AM 42.3894 -98.4817 298° West 431 496 22,100 -2,400 Descending Minneapolis Center
08:22AM 42.4594 -98.6614 298° West 447 514 19,200 -2,520 Descending Minneapolis Center
08:23AM 42.4822 -98.8128 282° West 413 475 17,000 -2,100 Descending Minneapolis Center
08:25AM 42.5022 -99.0525 277° West 403 464 13,600 -2,100 Descending Denver Center
08:26AM 42.5139 -99.2006 276° West 399 459 11,400 -1,920 Descending Denver Center
08:27AM 42.5261 -99.3350 277° West 375 432 9,800 -1,320 Descending Denver Center
08:28AM 42.5347 -99.4444 276° West 316 364 8,800 -900 Descending Denver Center
08:29AM 42.5444 -99.5686 276° West 292 336 8,000 -600 Descending Denver Center
08:30AM 42.5531 -99.6736 276° West 284 327 7,700 -300 Descending Denver Center